createdAt,value
2023-02-23T00:02:21.391Z,96538.63
2023-02-23T00:04:49.487Z,96540.46
2023-02-23T00:07:20.537Z,96542.27
2023-02-23T00:09:48.708Z,96541.52
2023-02-23T00:12:17.488Z,96540.06
2023-02-23T00:14:46.296Z,96544.55
2023-02-23T00:17:15.116Z,96550.79
2023-02-23T00:19:43.990Z,96551.99
2023-02-23T00:22:12.866Z,96552.49
2023-02-23T00:24:43.002Z,96549.12
2023-02-23T00:27:17.566Z,96549.89
2023-02-23T00:29:49.588Z,96546.52
2023-02-23T00:32:22.346Z,96541.89
2023-02-23T00:34:52.590Z,96545.42
2023-02-23T00:37:23.020Z,96544.46
2023-02-23T00:39:52.232Z,96545.97
2023-02-23T00:42:20.769Z,96542.71
2023-02-23T00:44:49.793Z,96542.99
2023-02-23T00:47:18.192Z,96552.27
2023-02-23T00:49:46.196Z,96549.23
2023-02-23T00:52:14.974Z,96556.10
2023-02-23T00:54:43.279Z,96555.02
2023-02-23T00:57:11.490Z,96557.85
2023-02-23T00:59:39.847Z,96553.74
2023-02-23T01:02:08.048Z,96554.02
2023-02-23T01:04:36.501Z,96555.82
2023-02-23T01:07:06.645Z,96553.80
2023-02-23T01:09:35.002Z,96551.30
2023-02-23T01:12:07.669Z,96551.13
2023-02-23T01:14:38.038Z,96553.67
2023-02-23T01:17:06.169Z,96555.11
2023-02-23T01:19:34.259Z,96555.80
2023-02-23T01:22:04.963Z,96554.05
2023-02-23T01:24:33.049Z,96550.35
2023-02-23T01:27:02.548Z,96552.44
2023-02-23T01:29:30.500Z,96553.06
2023-02-23T01:31:58.692Z,96550.88
2023-02-23T01:34:27.173Z,96550.70
2023-02-23T01:36:55.261Z,96550.54
2023-02-23T01:39:25.372Z,96550.00
2023-02-23T01:41:54.567Z,96546.55
2023-02-23T01:44:31.297Z,96546.59
2023-02-23T01:46:59.524Z,96547.73
2023-02-23T01:49:31.004Z,96546.67
2023-02-23T01:52:08.071Z,96546.47
2023-02-23T01:54:43.429Z,96547.63
2023-02-23T01:57:14.753Z,96541.39
2023-02-23T01:59:45.892Z,96542.09
2023-02-23T02:02:16.207Z,96545.23
2023-02-23T02:04:45.033Z,96547.98
2023-02-23T02:07:18.401Z,96550.42
2023-02-23T02:10:11.058Z,96547.23
2023-02-23T02:12:44.455Z,96545.45
2023-02-23T02:15:19.588Z,96546.42
2023-02-23T02:18:33.511Z,96545.92
2023-02-23T02:21:43.277Z,96544.64
2023-02-23T02:24:14.427Z,96547.52
2023-02-23T02:27:08.199Z,96550.75
2023-02-23T02:29:56.128Z,96550.48
2023-02-23T02:33:01.681Z,96551.34
2023-02-23T02:35:38.192Z,96550.88
2023-02-23T02:38:43.120Z,96545.77
2023-02-23T02:41:20.891Z,96548.59
2023-02-23T02:43:57.053Z,96550.09
2023-02-23T02:46:31.578Z,96553.45
2023-02-23T02:49:09.030Z,96554.80
2023-02-23T02:51:47.025Z,96554.30
2023-02-23T02:54:30.134Z,96555.39
2023-02-23T02:57:02.382Z,96559.44
2023-02-23T02:59:49.592Z,96561.26
2023-02-23T03:02:41.934Z,96563.72
2023-02-23T03:05:40.441Z,96559.28
2023-02-23T03:08:36.548Z,96560.39
2023-02-23T03:11:30.214Z,96560.83
2023-02-23T03:14:22.464Z,96563.36
2023-02-23T03:17:21.754Z,96564.30
2023-02-23T03:20:44.960Z,96568.19
2023-02-23T03:24:16.495Z,96568.19
2023-02-23T03:27:20.709Z,96567.52
2023-02-23T03:30:33.148Z,96565.10
2023-02-23T03:33:26.483Z,96565.14
2023-02-23T03:36:19.432Z,96565.66
2023-02-23T03:39:42.702Z,96563.55
2023-02-23T03:42:35.249Z,96569.77
2023-02-23T03:45:32.031Z,96565.65
2023-02-23T03:48:22.972Z,96566.28
2023-02-23T03:51:15.926Z,96563.02
2023-02-23T03:54:13.010Z,96565.61
2023-02-23T03:57:05.756Z,96564.90
2023-02-23T04:00:02.098Z,96566.40
2023-02-23T04:02:53.159Z,96568.00
2023-02-23T04:05:42.985Z,96573.03
2023-02-23T04:08:33.582Z,96572.31
2023-02-23T04:11:37.188Z,96575.10
2023-02-23T04:14:13.684Z,96577.25
2023-02-23T04:16:42.817Z,96580.92
2023-02-23T04:19:12.050Z,96582.16
2023-02-23T04:21:40.218Z,96580.95
2023-02-23T04:24:09.629Z,96579.00
2023-02-23T04:26:38.514Z,96577.16
2023-02-23T04:29:06.483Z,96578.42
2023-02-23T04:31:34.851Z,96576.92
2023-02-23T04:34:05.085Z,96574.66
2023-02-23T04:36:33.471Z,96573.79
2023-02-23T04:39:01.546Z,96575.77
2023-02-23T04:41:29.696Z,96576.18
2023-02-23T04:43:57.802Z,96575.31
2023-02-23T04:46:26.056Z,96574.67
2023-02-23T04:48:54.170Z,96573.41
2023-02-23T04:51:22.305Z,96576.62
2023-02-23T04:53:50.687Z,96578.88
2023-02-23T04:56:18.617Z,96577.95
2023-02-23T04:58:46.644Z,96578.93
2023-02-23T05:01:15.179Z,96578.99
2023-02-23T05:03:43.798Z,96582.08
2023-02-23T05:06:13.007Z,96578.83
2023-02-23T05:08:41.063Z,96582.77
2023-02-23T05:11:09.754Z,96581.08
2023-02-23T05:13:38.847Z,96583.02
2023-02-23T05:16:07.579Z,96587.09
2023-02-23T05:18:35.724Z,96589.65
2023-02-23T05:21:08.621Z,96593.55
2023-02-23T05:23:37.397Z,96594.08
2023-02-23T05:26:11.391Z,96600.48
2023-02-23T05:28:41.872Z,96599.06
2023-02-23T05:31:10.922Z,96602.92
2023-02-23T05:33:45.915Z,96604.96
2023-02-23T05:36:17.656Z,96605.08
2023-02-23T05:38:46.782Z,96604.73
2023-02-23T05:41:18.393Z,96608.83
2023-02-23T05:43:47.778Z,96611.90
2023-02-23T05:46:19.717Z,96612.83
2023-02-23T05:48:49.058Z,96614.11
2023-02-23T05:51:19.143Z,96616.58
2023-02-23T05:53:47.310Z,96622.17
2023-02-23T05:56:23.282Z,96627.48
2023-02-23T05:58:54.521Z,96632.51
2023-02-23T06:01:22.903Z,96634.14
2023-02-23T06:03:51.380Z,96631.05
2023-02-23T06:06:20.493Z,96633.90
2023-02-23T06:08:48.442Z,96636.80
2023-02-23T06:11:16.430Z,96639.21
2023-02-23T06:13:44.824Z,96643.20
2023-02-23T06:16:12.945Z,96645.98
2023-02-23T06:18:41.562Z,96647.02
2023-02-23T06:21:09.517Z,96649.84
2023-02-23T06:23:38.314Z,96653.12
2023-02-23T06:26:06.480Z,96649.23
2023-02-23T06:28:34.449Z,96649.29
2023-02-23T06:31:02.715Z,96647.30
2023-02-23T06:33:30.810Z,96649.24
2023-02-23T06:35:58.803Z,96654.66
2023-02-23T06:38:27.989Z,96648.40
2023-02-23T06:40:56.037Z,96647.11
2023-02-23T06:43:24.122Z,96647.16
2023-02-23T06:45:52.402Z,96647.84
2023-02-23T06:48:20.598Z,96651.86
2023-02-23T06:50:48.745Z,96655.70
2023-02-23T06:53:16.767Z,96647.13
2023-02-23T06:55:44.763Z,96649.12
2023-02-23T06:58:13.057Z,96647.91
2023-02-23T07:00:43.774Z,96651.30
2023-02-23T07:03:12.068Z,96648.73
2023-02-23T07:05:41.167Z,96647.45
2023-02-23T07:08:09.447Z,96645.91
2023-02-23T07:10:37.468Z,96647.98
2023-02-23T07:13:05.486Z,96645.60
2023-02-23T07:15:35.877Z,96648.38
2023-02-23T07:18:03.978Z,96647.80
2023-02-23T07:20:33.262Z,96644.34
2023-02-23T07:23:02.270Z,96645.48
2023-02-23T07:25:31.154Z,96643.25
2023-02-23T07:27:59.351Z,96641.19
2023-02-23T07:30:27.467Z,96640.81
2023-02-23T07:32:55.583Z,96635.64
2023-02-23T07:35:23.550Z,96637.91
2023-02-23T07:37:51.718Z,96638.10
2023-02-23T07:40:20.312Z,96641.96
2023-02-23T07:42:48.506Z,96641.17
2023-02-23T07:45:17.610Z,96634.08
2023-02-23T07:47:45.652Z,96639.25
2023-02-23T07:50:14.746Z,96637.71
2023-02-23T07:52:43.545Z,96640.50
2023-02-23T07:55:12.239Z,96637.27
2023-02-23T07:57:40.506Z,96639.16
2023-02-23T08:00:09.506Z,96642.42
2023-02-23T08:02:44.324Z,96642.88
2023-02-23T08:05:13.121Z,96640.81
2023-02-23T08:07:41.186Z,96638.79
2023-02-23T08:10:10.096Z,96639.23
2023-02-23T08:12:38.385Z,96639.52
2023-02-23T08:15:08.403Z,96639.25
2023-02-23T08:17:37.671Z,96639.82
2023-02-23T08:20:06.770Z,96638.77
2023-02-23T08:22:48.404Z,96636.36
2023-02-23T08:25:18.435Z,96634.98
2023-02-23T08:27:47.589Z,96634.11
2023-02-23T08:30:16.866Z,96634.08
2023-02-23T08:32:45.472Z,96633.05
2023-02-23T08:35:14.054Z,96634.48
2023-02-23T08:37:42.037Z,96635.39
2023-02-23T08:40:11.622Z,96635.69
2023-02-23T08:42:39.704Z,96635.09
2023-02-23T08:45:08.829Z,96633.11
2023-02-23T08:47:37.167Z,96636.52
2023-02-23T08:50:05.852Z,96632.86
2023-02-23T08:52:34.330Z,96631.15
2023-02-23T08:55:02.681Z,96633.77
2023-02-23T08:57:33.755Z,96635.45
2023-02-23T09:00:02.445Z,96635.07
2023-02-23T09:02:30.601Z,96634.23
2023-02-23T09:04:59.398Z,96637.08
2023-02-23T09:07:27.579Z,96635.05
2023-02-23T09:09:56.824Z,96636.77
2023-02-23T09:12:25.474Z,96636.30
2023-02-23T09:14:54.219Z,96637.13
2023-02-23T09:17:23.343Z,96631.66
2023-02-23T09:19:51.300Z,96633.98
2023-02-23T09:22:20.007Z,96628.95
2023-02-23T09:24:48.178Z,96625.86
2023-02-23T09:27:16.247Z,96628.11
2023-02-23T09:29:44.834Z,96628.63
2023-02-23T09:32:13.187Z,96627.41
2023-02-23T09:34:41.791Z,96628.20
2023-02-23T09:37:09.717Z,96626.84
2023-02-23T09:39:39.078Z,96626.01
2023-02-23T09:42:17.261Z,96626.77
2023-02-23T09:44:55.175Z,96628.46
2023-02-23T09:47:30.851Z,96629.53
2023-02-23T09:50:09.320Z,96628.70
2023-02-23T09:52:54.735Z,96622.41
2023-02-23T09:55:22.750Z,96621.17
2023-02-23T09:57:50.964Z,96626.73
2023-02-23T10:00:24.319Z,96619.18
2023-02-23T10:03:24.728Z,96613.73
2023-02-23T10:05:59.089Z,96614.38
2023-02-23T10:09:05.382Z,96610.05
2023-02-23T10:11:46.243Z,96606.35
2023-02-23T10:14:17.181Z,96604.14
2023-02-23T10:17:03.451Z,96601.10
2023-02-23T10:19:44.661Z,96599.91
2023-02-23T10:22:15.781Z,96598.46
2023-02-23T10:24:51.237Z,96597.20
2023-02-23T10:27:29.492Z,96599.77
2023-02-23T10:30:02.012Z,96599.81
2023-02-23T10:32:48.964Z,96595.90
2023-02-23T10:35:21.131Z,96591.77
2023-02-23T10:37:51.758Z,96581.98
2023-02-23T10:40:26.334Z,96583.42
2023-02-23T10:42:58.850Z,96578.73
2023-02-23T10:45:28.692Z,96572.22
2023-02-23T10:48:07.096Z,96577.45
2023-02-23T10:50:39.295Z,96577.29
2023-02-23T10:53:17.967Z,96569.02
2023-02-23T10:55:47.486Z,96562.94
2023-02-23T10:58:18.383Z,96557.48
2023-02-23T11:01:03.552Z,96554.09
2023-02-23T11:03:43.157Z,96548.41
2023-02-23T11:06:34.039Z,96544.88
2023-02-23T11:09:45.003Z,96542.78
2023-02-23T11:12:29.742Z,96539.56
2023-02-23T11:14:59.493Z,96536.59
2023-02-23T11:17:36.976Z,96531.19
2023-02-23T11:20:23.064Z,96522.83
2023-02-23T11:22:52.398Z,96521.98
2023-02-23T11:25:31.868Z,96521.98
2023-02-23T11:28:01.083Z,96522.36
2023-02-23T11:30:43.037Z,96522.31
2023-02-23T11:33:18.032Z,96523.16
2023-02-23T11:35:46.822Z,96523.35
2023-02-23T11:38:27.842Z,96517.05
2023-02-23T11:41:04.734Z,96513.89
2023-02-23T11:43:33.175Z,96512.83
2023-02-23T11:46:02.670Z,96519.05
2023-02-23T11:48:38.788Z,96516.63
2023-02-23T11:51:07.817Z,96516.25
2023-02-23T11:53:45.306Z,96513.49
2023-02-23T11:56:21.145Z,96509.92
2023-02-23T11:58:58.055Z,96508.67
2023-02-23T12:01:47.024Z,96509.77
2023-02-23T12:04:30.429Z,96503.89
2023-02-23T12:07:17.162Z,96506.22
2023-02-23T12:09:47.878Z,96502.17
2023-02-23T12:12:21.992Z,96500.21
2023-02-23T12:14:57.147Z,96501.13
2023-02-23T12:17:29.733Z,96496.85
2023-02-23T12:20:11.185Z,96493.69
2023-02-23T12:22:44.809Z,96491.09
2023-02-23T12:25:41.039Z,96493.91
2023-02-23T12:28:32.354Z,96488.27
2023-02-23T12:31:16.795Z,96487.48
2023-02-23T12:33:50.823Z,96484.14
2023-02-23T12:36:30.154Z,96480.18
2023-02-23T12:39:04.882Z,96479.83
2023-02-23T12:41:43.918Z,96475.86
2023-02-23T12:44:49.421Z,96478.10
2023-02-23T12:47:31.857Z,96478.14
2023-02-23T12:50:14.440Z,96478.38
2023-02-23T12:52:49.636Z,96478.36
2023-02-23T12:55:28.122Z,96480.11
2023-02-23T12:58:06.231Z,96477.41
2023-02-23T13:00:58.621Z,96474.73
2023-02-23T13:03:37.622Z,96476.23
2023-02-23T13:06:14.183Z,96473.70
2023-02-23T13:09:03.361Z,96473.90
2023-02-23T13:11:40.741Z,96475.85
2023-02-23T13:14:26.440Z,96466.48
2023-02-23T13:17:04.936Z,96469.36
2023-02-23T13:19:42.486Z,96468.88
2023-02-23T13:22:28.736Z,96466.02
2023-02-23T13:25:04.594Z,96467.13
2023-02-23T13:27:43.303Z,96466.14
2023-02-23T13:30:12.485Z,96465.30
2023-02-23T13:32:40.661Z,96463.36
2023-02-23T13:35:20.488Z,96461.02
2023-02-23T13:38:22.695Z,96463.20
2023-02-23T13:40:58.886Z,96459.26
2023-02-23T13:43:47.616Z,96460.43
2023-02-23T13:46:22.372Z,96455.12
2023-02-23T13:49:12.335Z,96457.47
2023-02-23T13:51:50.647Z,96455.37
2023-02-23T13:54:22.874Z,96457.48
2023-02-23T13:56:55.448Z,96457.33
2023-02-23T13:59:29.786Z,96459.12
2023-02-23T14:02:02.199Z,96452.00
2023-02-23T14:04:42.120Z,96451.09
2023-02-23T14:07:10.312Z,96453.00
2023-02-23T14:09:44.425Z,96451.31
2023-02-23T14:12:20.779Z,96453.56
2023-02-23T14:14:49.056Z,96454.27
2023-02-23T14:17:19.905Z,96457.30
2023-02-23T14:20:24.292Z,96457.20
2023-02-23T14:23:15.128Z,96459.04
2023-02-23T14:25:50.870Z,96456.52
2023-02-23T14:28:27.754Z,96453.93
2023-02-23T14:31:11.207Z,96455.48
2023-02-23T14:33:42.756Z,96454.33
2023-02-23T14:36:29.021Z,96456.48
2023-02-23T14:38:57.078Z,96454.63
2023-02-23T14:41:29.897Z,96454.54
2023-02-23T14:44:17.140Z,96456.11
2023-02-23T14:46:57.414Z,96451.35
2023-02-23T14:49:28.213Z,96450.42
2023-02-23T14:52:00.692Z,96455.00
2023-02-23T14:54:32.657Z,96454.95
2023-02-23T14:57:03.696Z,96450.11
2023-02-23T14:59:42.670Z,96447.84
2023-02-23T15:02:24.174Z,96448.81
2023-02-23T15:04:53.054Z,96447.66
2023-02-23T15:07:31.406Z,96450.90
2023-02-23T15:10:01.728Z,96450.61
2023-02-23T15:12:38.004Z,96443.66
2023-02-23T15:15:18.052Z,96449.26
2023-02-23T15:17:48.375Z,96447.06
2023-02-23T15:20:32.701Z,96448.10
2023-02-23T15:23:04.934Z,96446.07
2023-02-23T15:25:36.852Z,96445.65
2023-02-23T15:28:21.774Z,96449.27
2023-02-23T15:30:51.239Z,96450.27
2023-02-23T15:33:29.331Z,96445.77
2023-02-23T15:36:07.178Z,96450.59
2023-02-23T15:38:43.968Z,96449.59
2023-02-23T15:41:19.463Z,96450.05
2023-02-23T15:43:47.976Z,96449.45
2023-02-23T15:46:25.232Z,96450.75
2023-02-23T15:48:55.869Z,96453.50
2023-02-23T15:51:38.216Z,96455.98
2023-02-23T15:54:25.378Z,96456.27
2023-02-23T15:57:14.274Z,96454.88
2023-02-23T15:59:48.071Z,96455.98
2023-02-23T16:02:19.537Z,96460.42
2023-02-23T16:04:54.011Z,96464.28
2023-02-23T16:07:43.589Z,96459.95
2023-02-23T16:10:25.795Z,96466.89
2023-02-23T16:12:55.114Z,96463.92
2023-02-23T16:15:35.616Z,96461.79
2023-02-23T16:18:12.963Z,96465.85
2023-02-23T16:20:45.696Z,96464.45
2023-02-23T16:23:35.641Z,96468.45
2023-02-23T16:26:07.190Z,96467.44
2023-02-23T16:28:37.303Z,96470.45
2023-02-23T16:31:07.867Z,96469.25
2023-02-23T16:33:53.107Z,96464.76
2023-02-23T16:36:24.970Z,96467.27
2023-02-23T16:38:53.037Z,96467.45
2023-02-23T16:41:22.436Z,96467.75
2023-02-23T16:43:52.866Z,96469.09
2023-02-23T16:46:24.890Z,96466.73
2023-02-23T16:48:53.116Z,96473.14
2023-02-23T16:51:23.845Z,96473.59
2023-02-23T16:53:53.304Z,96477.29
2023-02-23T16:56:22.552Z,96477.48
2023-02-23T16:58:58.406Z,96477.88
2023-02-23T17:01:26.697Z,96479.70
2023-02-23T17:03:55.063Z,96480.10
2023-02-23T17:06:23.442Z,96482.25
2023-02-23T17:08:58.064Z,96478.75
2023-02-23T17:11:27.080Z,96480.25
2023-02-23T17:13:55.251Z,96480.60
2023-02-23T17:16:23.600Z,96477.53
2023-02-23T17:18:51.988Z,96475.66
2023-02-23T17:21:24.010Z,96472.20
2023-02-23T17:23:53.561Z,96478.08
2023-02-23T17:26:25.657Z,96479.77
2023-02-23T17:28:54.203Z,96476.60
2023-02-23T17:31:27.249Z,96474.39
2023-02-23T17:33:55.977Z,96477.46
2023-02-23T17:36:24.152Z,96477.97
2023-02-23T17:38:58.652Z,96476.66
2023-02-23T17:41:27.505Z,96474.38
2023-02-23T17:43:58.506Z,96472.81
2023-02-23T17:46:26.711Z,96469.59
2023-02-23T17:48:56.193Z,96469.69
2023-02-23T17:51:24.896Z,96475.63
2023-02-23T17:53:53.766Z,96475.71
2023-02-23T17:56:23.773Z,96479.09
2023-02-23T17:58:51.957Z,96477.50
2023-02-23T18:01:20.412Z,96476.38
2023-02-23T18:03:50.148Z,96474.66
2023-02-23T18:06:19.870Z,96477.04
2023-02-23T18:08:48.228Z,96472.84
2023-02-23T18:11:18.966Z,96467.88
2023-02-23T18:13:51.440Z,96468.05
2023-02-23T18:16:20.649Z,96467.23
2023-02-23T18:18:49.527Z,96466.19
2023-02-23T18:21:20.672Z,96471.49
2023-02-23T18:23:50.322Z,96469.08
2023-02-23T18:26:22.280Z,96469.16
2023-02-23T18:28:51.424Z,96469.83
2023-02-23T18:31:22.558Z,96471.77
2023-02-23T18:33:53.049Z,96469.56
2023-02-23T18:36:35.199Z,96466.17
2023-02-23T18:39:08.301Z,96464.39
2023-02-23T18:41:37.408Z,96464.52
2023-02-23T18:44:08.436Z,96468.88
2023-02-23T18:46:36.850Z,96465.04
2023-02-23T18:49:06.261Z,96463.56
2023-02-23T18:51:34.302Z,96466.55
2023-02-23T18:54:09.109Z,96464.77
2023-02-23T18:56:37.959Z,96465.42
2023-02-23T18:59:06.503Z,96464.50
2023-02-23T19:01:37.746Z,96462.95
2023-02-23T19:04:08.029Z,96465.70
2023-02-23T19:06:39.030Z,96463.30
2023-02-23T19:09:13.964Z,96464.08
2023-02-23T19:11:43.647Z,96469.30
2023-02-23T19:14:16.121Z,96468.52
2023-02-23T19:16:46.926Z,96473.42
2023-02-23T19:19:17.369Z,96475.63
2023-02-23T19:21:45.874Z,96477.27
2023-02-23T19:24:13.944Z,96473.56
2023-02-23T19:26:46.622Z,96478.63
2023-02-23T19:29:14.589Z,96479.48
2023-02-23T19:31:42.614Z,96478.65
2023-02-23T19:34:10.836Z,96478.26
2023-02-23T19:36:40.341Z,96478.73
2023-02-23T19:39:11.293Z,96473.20
2023-02-23T19:41:40.275Z,96476.05
2023-02-23T19:44:10.931Z,96475.77
2023-02-23T19:46:43.168Z,96476.20
2023-02-23T19:49:11.971Z,96471.70
2023-02-23T19:51:40.762Z,96475.77
2023-02-23T19:54:08.931Z,96476.20
2023-02-23T19:56:38.637Z,96471.17
2023-02-23T19:59:06.621Z,96470.11
2023-02-23T20:01:36.178Z,96473.83
2023-02-23T20:04:09.516Z,96475.17
2023-02-23T20:06:47.273Z,96470.44
2023-02-23T20:09:15.705Z,96466.64
2023-02-23T20:11:43.980Z,96466.35
2023-02-23T20:14:12.615Z,96463.50
2023-02-23T20:16:40.759Z,96462.09
2023-02-23T20:19:09.222Z,96460.60
2023-02-23T20:21:37.506Z,96455.61
2023-02-23T20:24:06.176Z,96460.65
2023-02-23T20:26:37.288Z,96455.41
2023-02-23T20:29:11.062Z,96455.35
2023-02-23T20:31:42.837Z,96461.79
2023-02-23T20:34:12.226Z,96461.53
2023-02-23T20:36:40.356Z,96457.13
2023-02-23T20:39:10.699Z,96459.06
2023-02-23T20:41:44.179Z,96454.67
2023-02-23T20:44:14.087Z,96458.23
2023-02-23T20:46:43.924Z,96454.50
2023-02-23T20:49:18.533Z,96452.02
2023-02-23T20:51:48.717Z,96453.97
2023-02-23T20:54:17.090Z,96448.82
2023-02-23T20:56:45.210Z,96444.77
2023-02-23T20:59:14.100Z,96444.04
2023-02-23T21:01:43.860Z,96445.92
2023-02-23T21:04:13.296Z,96443.29
2023-02-23T21:06:41.488Z,96445.91
2023-02-23T21:09:18.149Z,96446.92
2023-02-23T21:11:48.046Z,96444.95
2023-02-23T21:14:17.632Z,96446.64
2023-02-23T21:16:47.039Z,96449.88
2023-02-23T21:19:17.438Z,96449.35
2023-02-23T21:21:51.109Z,96449.35
2023-02-23T21:24:19.518Z,96450.84
2023-02-23T21:26:48.066Z,96451.39
2023-02-23T21:29:16.809Z,96452.77
2023-02-23T21:31:46.942Z,96454.67
2023-02-23T21:34:21.504Z,96453.52
2023-02-23T21:36:52.027Z,96452.49
2023-02-23T21:39:21.667Z,96452.55
2023-02-23T21:41:50.037Z,96456.04
2023-02-23T21:44:18.204Z,96452.67
2023-02-23T21:46:46.398Z,96455.27
2023-02-23T21:49:14.647Z,96455.86
2023-02-23T21:51:42.826Z,96454.89
2023-02-23T21:54:11.713Z,96459.16
2023-02-23T21:56:39.832Z,96456.08
2023-02-23T21:59:11.021Z,96455.88
2023-02-23T22:01:40.927Z,96460.33
2023-02-23T22:04:13.938Z,96462.78
2023-02-23T22:06:44.360Z,96456.98
2023-02-23T22:09:15.754Z,96459.10
2023-02-23T22:11:47.246Z,96456.58
2023-02-23T22:14:18.882Z,96455.22
2023-02-23T22:16:47.975Z,96451.67
2023-02-23T22:19:19.519Z,96455.55
2023-02-23T22:21:48.550Z,96453.73
2023-02-23T22:24:17.782Z,96449.69
2023-02-23T22:26:50.662Z,96450.55
2023-02-23T22:29:18.820Z,96451.89
2023-02-23T22:31:47.282Z,96451.15
2023-02-23T22:34:15.881Z,96449.77
2023-02-23T22:36:44.457Z,96444.93
2023-02-23T22:39:16.531Z,96444.46
2023-02-23T22:41:46.389Z,96439.48
2023-02-23T22:44:17.644Z,96441.34
2023-02-23T22:46:48.296Z,96437.16
2023-02-23T22:49:19.972Z,96439.00
2023-02-23T22:51:50.586Z,96438.61
2023-02-23T22:54:20.730Z,96436.81
2023-02-23T22:56:49.016Z,96436.39
2023-02-23T22:59:20.763Z,96437.55
2023-02-23T23:01:50.524Z,96435.83
2023-02-23T23:04:22.173Z,96431.59
2023-02-23T23:06:50.719Z,96432.20
2023-02-23T23:09:21.323Z,96429.77
2023-02-23T23:11:50.980Z,96423.42
2023-02-23T23:14:19.737Z,96427.44
2023-02-23T23:16:48.533Z,96423.19
2023-02-23T23:19:24.041Z,96427.02
2023-02-23T23:21:55.459Z,96428.02
2023-02-23T23:24:24.713Z,96431.20
2023-02-23T23:26:55.543Z,96429.52
2023-02-23T23:29:26.066Z,96429.20
2023-02-23T23:31:56.998Z,96428.69
2023-02-23T23:34:25.536Z,96422.17
2023-02-23T23:36:55.360Z,96419.55
2023-02-23T23:39:26.124Z,96420.47
2023-02-23T23:41:54.960Z,96420.55
2023-02-23T23:44:28.985Z,96418.80
2023-02-23T23:46:58.179Z,96418.05
2023-02-23T23:49:26.225Z,96413.41
2023-02-23T23:51:58.872Z,96411.52
2023-02-23T23:54:32.580Z,96409.89
2023-02-23T23:57:01.664Z,96407.19
2023-02-23T23:59:31.934Z,96406.98
